createdAt,value
2017-07-19T00:00:26.584Z,18.60
2017-07-19T00:02:53.052Z,18.60
2017-07-19T00:05:19.387Z,18.50
2017-07-19T00:07:45.737Z,18.50
2017-07-19T00:10:12.111Z,18.50
2017-07-19T00:12:39.209Z,18.50
2017-07-19T00:15:05.527Z,18.50
2017-07-19T00:17:31.885Z,18.40
2017-07-19T00:19:58.252Z,18.40
2017-07-19T00:22:24.549Z,18.30
2017-07-19T00:24:50.843Z,18.20
2017-07-19T00:27:17.139Z,18.20
2017-07-19T00:29:44.179Z,18.10
2017-07-19T00:32:10.512Z,18.10
2017-07-19T00:34:36.812Z,18.00
2017-07-19T00:37:03.154Z,17.90
2017-07-19T00:39:29.468Z,17.90
2017-07-19T00:41:55.800Z,17.70
2017-07-19T00:44:22.155Z,17.60
2017-07-19T00:46:48.455Z,17.60
2017-07-19T00:49:14.764Z,17.70
2017-07-19T00:51:41.131Z,17.80
2017-07-19T00:54:07.442Z,17.70
2017-07-19T00:56:33.756Z,17.60
2017-07-19T00:59:00.091Z,17.60
2017-07-19T01:01:26.399Z,17.60
2017-07-19T01:03:52.732Z,17.50
2017-07-19T01:06:19.040Z,17.30
2017-07-19T01:08:46.089Z,17.10
2017-07-19T01:11:12.460Z,17.10
2017-07-19T01:13:38.763Z,17.10
2017-07-19T01:16:05.081Z,17.20
2017-07-19T01:18:32.121Z,17.20
2017-07-19T01:20:58.436Z,17.20
2017-07-19T01:23:24.732Z,17.20
2017-07-19T01:25:51.047Z,17.20
2017-07-19T01:28:17.340Z,17.20
2017-07-19T01:30:43.701Z,17.10
2017-07-19T01:33:10.014Z,17.10
2017-07-19T01:35:36.666Z,17.10
2017-07-19T01:38:03.016Z,17.10
2017-07-19T01:40:29.391Z,17.10
2017-07-19T01:42:56.459Z,17.10
2017-07-19T01:45:22.787Z,17.10
2017-07-19T01:47:49.161Z,17.10
2017-07-19T01:50:15.604Z,17.20
2017-07-19T01:52:41.931Z,17.10
2017-07-19T01:55:08.266Z,17.10
2017-07-19T01:57:34.627Z,17.10
2017-07-19T02:00:01.734Z,17.00
2017-07-19T02:02:28.147Z,17.00
2017-07-19T02:04:54.491Z,16.90
2017-07-19T02:07:20.819Z,16.90
2017-07-19T02:09:47.157Z,16.90
2017-07-19T02:12:13.500Z,16.80
2017-07-19T02:14:39.808Z,16.90
2017-07-19T02:17:06.104Z,16.90
2017-07-19T02:19:32.461Z,16.90
2017-07-19T02:21:58.811Z,16.80
2017-07-19T02:24:25.108Z,16.80
2017-07-19T02:26:51.586Z,16.80
2017-07-19T02:29:17.920Z,16.60
2017-07-19T02:31:44.216Z,16.40
2017-07-19T02:34:10.558Z,16.40
2017-07-19T02:36:36.923Z,16.50
2017-07-19T02:39:03.283Z,16.30
2017-07-19T02:41:29.655Z,16.20
2017-07-19T02:43:55.957Z,15.90
2017-07-19T02:46:22.267Z,15.90
2017-07-19T02:48:48.604Z,15.80
2017-07-19T02:51:14.919Z,15.80
2017-07-19T02:53:41.951Z,15.90
2017-07-19T02:56:08.289Z,15.90
2017-07-19T02:58:35.327Z,16.10
2017-07-19T03:01:01.623Z,16.00
2017-07-19T03:03:27.983Z,16.10
2017-07-19T03:05:54.280Z,16.10
2017-07-19T03:08:20.566Z,16.00
2017-07-19T03:10:46.878Z,16.00
2017-07-19T03:13:13.220Z,16.10
2017-07-19T03:15:40.306Z,15.90
2017-07-19T03:18:06.591Z,15.90
2017-07-19T03:20:33.656Z,15.60
2017-07-19T03:23:00.007Z,15.60
2017-07-19T03:25:26.290Z,15.60
2017-07-19T03:27:52.596Z,15.70
2017-07-19T03:30:18.943Z,15.80
2017-07-19T03:32:45.259Z,15.90
2017-07-19T03:35:11.600Z,16.00
2017-07-19T03:37:37.889Z,16.10
2017-07-19T03:40:04.185Z,16.20
2017-07-19T03:42:30.530Z,16.20
2017-07-19T03:44:56.851Z,16.10
2017-07-19T03:47:23.948Z,16.10
2017-07-19T03:49:50.244Z,16.10
2017-07-19T03:52:16.575Z,16.10
2017-07-19T03:54:42.932Z,16.20
2017-07-19T03:57:09.312Z,16.20
2017-07-19T03:59:35.641Z,16.20
2017-07-19T04:02:01.999Z,16.20
2017-07-19T04:04:28.303Z,16.30
2017-07-19T04:06:55.355Z,16.40
2017-07-19T04:09:21.751Z,16.30
2017-07-19T04:11:48.047Z,16.40
2017-07-19T04:14:14.450Z,16.40
2017-07-19T04:16:40.751Z,16.40
2017-07-19T04:19:07.092Z,16.50
2017-07-19T04:21:33.392Z,16.60
2017-07-19T04:23:59.728Z,16.60
2017-07-19T04:26:26.053Z,16.70
2017-07-19T04:28:52.361Z,16.70
2017-07-19T04:31:18.739Z,16.70
2017-07-19T04:33:45.796Z,16.80
2017-07-19T04:36:12.112Z,16.70
2017-07-19T04:38:38.404Z,16.80
2017-07-19T04:41:04.746Z,17.00
2017-07-19T04:43:31.069Z,17.10
2017-07-19T04:45:57.375Z,17.10
2017-07-19T04:48:23.720Z,17.10
2017-07-19T04:50:50.069Z,17.30
2017-07-19T04:53:16.391Z,17.20
2017-07-19T04:55:42.684Z,17.10
2017-07-19T04:58:09.755Z,17.10
2017-07-19T05:00:36.116Z,17.10
2017-07-19T05:03:02.436Z,17.10
2017-07-19T05:05:28.792Z,17.20
2017-07-19T05:07:55.080Z,17.20
2017-07-19T05:10:21.441Z,17.20
2017-07-19T05:12:47.755Z,17.30
2017-07-19T05:15:14.115Z,17.30
2017-07-19T05:17:40.419Z,17.30
2017-07-19T05:20:06.712Z,17.20
2017-07-19T05:22:33.207Z,17.30
2017-07-19T05:24:59.503Z,17.40
2017-07-19T05:27:25.850Z,17.60
2017-07-19T05:29:52.162Z,17.80
2017-07-19T05:32:18.465Z,18.20
2017-07-19T05:34:44.805Z,18.40
2017-07-19T05:37:11.104Z,18.70
2017-07-19T05:39:37.460Z,18.80
2017-07-19T05:42:03.804Z,19.00
2017-07-19T05:44:30.120Z,19.30
2017-07-19T05:46:56.428Z,19.50
2017-07-19T05:49:23.504Z,20.00
2017-07-19T05:51:49.836Z,20.00
2017-07-19T05:54:16.148Z,20.40
2017-07-19T05:56:42.483Z,20.70
2017-07-19T05:59:08.832Z,20.80
2017-07-19T06:01:35.128Z,21.00
2017-07-19T06:04:01.470Z,21.00
2017-07-19T06:06:27.804Z,21.40
2017-07-19T06:08:54.183Z,21.90
2017-07-19T06:11:20.524Z,22.40
2017-07-19T06:13:46.861Z,22.50
2017-07-19T06:16:13.217Z,22.80
2017-07-19T06:18:39.524Z,23.10
2017-07-19T06:21:05.871Z,23.40
2017-07-19T06:23:32.924Z,23.80
2017-07-19T06:25:59.245Z,23.80
2017-07-19T06:28:26.347Z,24.30
2017-07-19T06:30:52.663Z,24.20
2017-07-19T06:33:19.115Z,24.60
2017-07-19T06:35:45.472Z,24.70
2017-07-19T06:38:12.541Z,25.10
2017-07-19T06:40:38.871Z,25.10
2017-07-19T06:43:05.224Z,25.30
2017-07-19T06:45:31.573Z,25.30
2017-07-19T06:47:57.919Z,25.50
2017-07-19T06:50:24.280Z,25.70
2017-07-19T06:52:50.644Z,26.10
2017-07-19T06:55:16.952Z,26.30
2017-07-19T06:57:43.296Z,26.60
2017-07-19T07:00:09.601Z,26.50
2017-07-19T07:02:35.959Z,26.30
2017-07-19T07:05:02.271Z,26.50
2017-07-19T07:07:28.633Z,26.60
2017-07-19T07:09:55.012Z,27.00
2017-07-19T07:12:21.384Z,27.20
2017-07-19T07:14:47.716Z,27.60
2017-07-19T07:17:14.063Z,27.80
2017-07-19T07:19:40.393Z,28.10
2017-07-19T07:22:06.701Z,28.30
2017-07-19T07:24:33.056Z,28.60
2017-07-19T07:26:59.430Z,28.70
2017-07-19T07:29:26.505Z,28.70
2017-07-19T07:31:52.806Z,28.70
2017-07-19T07:34:19.130Z,28.80
2017-07-19T07:36:46.257Z,28.70
2017-07-19T07:39:12.589Z,28.70
2017-07-19T07:41:38.983Z,29.10
2017-07-19T07:44:05.316Z,29.40
2017-07-19T07:46:31.668Z,29.80
2017-07-19T07:48:58.002Z,29.90
2017-07-19T07:51:24.346Z,30.40
2017-07-19T07:53:50.702Z,30.50
2017-07-19T07:56:17.008Z,30.80
2017-07-19T07:58:43.364Z,30.40
2017-07-19T08:01:09.752Z,31.00
2017-07-19T08:03:36.056Z,31.40
2017-07-19T08:06:02.369Z,32.00
2017-07-19T08:08:29.439Z,32.80
2017-07-19T08:10:55.757Z,32.80
2017-07-19T08:13:22.124Z,33.30
2017-07-19T08:15:48.415Z,33.80
2017-07-19T08:18:14.735Z,33.90
2017-07-19T08:20:41.068Z,33.10
2017-07-19T08:23:07.400Z,33.60
2017-07-19T08:25:34.440Z,34.60
2017-07-19T08:28:01.518Z,34.80
2017-07-19T08:30:27.845Z,34.80
2017-07-19T08:32:54.163Z,35.00
2017-07-19T08:35:20.512Z,35.20
2017-07-19T08:37:46.871Z,35.50
2017-07-19T08:40:13.180Z,35.80
2017-07-19T08:42:39.527Z,35.20
2017-07-19T08:45:05.868Z,35.60
2017-07-19T08:47:32.169Z,35.90
2017-07-19T08:49:58.524Z,36.00
2017-07-19T08:52:24.876Z,35.60
2017-07-19T08:54:51.176Z,34.70
2017-07-19T08:57:17.548Z,35.30
2017-07-19T08:59:43.849Z,36.10
2017-07-19T09:02:10.214Z,36.10
2017-07-19T09:04:36.548Z,35.80
2017-07-19T09:07:03.604Z,36.20
2017-07-19T09:09:29.980Z,36.20
2017-07-19T09:11:56.310Z,36.60
2017-07-19T09:14:22.723Z,36.40
2017-07-19T09:16:49.052Z,35.50
2017-07-19T09:19:15.351Z,36.00
2017-07-19T09:21:42.444Z,36.30
2017-07-19T09:24:08.806Z,36.20
2017-07-19T09:26:35.132Z,36.80
2017-07-19T09:29:02.253Z,37.00
2017-07-19T09:31:28.557Z,37.00
2017-07-19T09:33:54.883Z,37.40
2017-07-19T09:36:21.248Z,37.10
2017-07-19T09:38:47.568Z,36.90
2017-07-19T09:41:13.896Z,36.80
2017-07-19T09:43:40.219Z,36.90
2017-07-19T09:46:06.542Z,37.40
2017-07-19T09:48:32.859Z,36.20
2017-07-19T09:50:59.202Z,35.30
2017-07-19T09:53:25.533Z,33.60
2017-07-19T09:55:51.867Z,33.90
2017-07-19T09:58:18.529Z,34.80
2017-07-19T10:00:44.828Z,35.60
2017-07-19T10:03:11.181Z,36.40
2017-07-19T10:05:37.509Z,37.20
2017-07-19T10:08:03.809Z,37.10
2017-07-19T10:10:30.158Z,37.00
2017-07-19T10:12:56.499Z,37.30
2017-07-19T10:15:22.824Z,37.70
2017-07-19T10:17:49.177Z,38.30
2017-07-19T10:20:15.505Z,36.00
2017-07-19T10:22:41.808Z,35.70
2017-07-19T10:25:08.180Z,36.10
2017-07-19T10:27:34.548Z,37.70
2017-07-19T10:30:00.902Z,38.70
2017-07-19T10:32:27.297Z,38.80
2017-07-19T10:34:54.446Z,39.50
2017-07-19T10:37:21.512Z,39.30
2017-07-19T10:39:47.839Z,39.30
2017-07-19T10:42:14.203Z,39.60
2017-07-19T10:44:40.539Z,39.90
2017-07-19T10:47:06.949Z,39.00
2017-07-19T10:49:33.275Z,38.50
2017-07-19T10:51:59.663Z,38.70
2017-07-19T10:54:26.009Z,36.20
2017-07-19T10:56:52.331Z,36.60
2017-07-19T10:59:18.655Z,36.60
2017-07-19T11:01:45.732Z,37.80
2017-07-19T11:04:12.077Z,37.70
2017-07-19T11:06:38.428Z,38.30
2017-07-19T11:09:04.772Z,38.40
2017-07-19T11:11:31.228Z,38.40
2017-07-19T11:13:58.305Z,38.00
2017-07-19T11:16:24.612Z,37.90
2017-07-19T11:18:51.733Z,37.70
2017-07-19T11:21:18.054Z,37.60
2017-07-19T11:23:44.550Z,37.60
2017-07-19T11:26:10.929Z,36.80
2017-07-19T11:28:37.232Z,36.80
2017-07-19T11:31:03.586Z,35.40
2017-07-19T11:33:29.962Z,35.80
2017-07-19T11:35:56.349Z,36.00
2017-07-19T11:38:22.674Z,35.50
2017-07-19T11:40:49.027Z,35.70
2017-07-19T11:43:15.336Z,35.60
2017-07-19T11:45:41.756Z,34.50
2017-07-19T11:48:08.063Z,32.60
2017-07-19T11:50:34.374Z,33.10
2017-07-19T11:53:00.754Z,33.70
2017-07-19T11:55:27.088Z,33.90
2017-07-19T11:57:53.388Z,33.50
2017-07-19T12:00:19.801Z,32.80
2017-07-19T12:02:46.108Z,31.70
2017-07-19T12:05:12.400Z,32.50
2017-07-19T12:07:38.751Z,33.20
2017-07-19T12:10:05.072Z,33.50
2017-07-19T12:12:31.407Z,33.90
2017-07-19T12:14:57.716Z,33.60
2017-07-19T12:17:24.030Z,33.20
2017-07-19T12:19:50.367Z,32.70
2017-07-19T12:22:16.701Z,32.80
2017-07-19T12:24:43.012Z,33.20
2017-07-19T12:27:09.355Z,33.20
2017-07-19T12:29:35.699Z,33.10
2017-07-19T12:32:02.011Z,33.10
2017-07-19T12:34:28.350Z,33.20
2017-07-19T12:36:54.717Z,33.30
2017-07-19T12:39:21.032Z,33.40
2017-07-19T12:41:47.351Z,32.70
2017-07-19T12:44:13.694Z,32.40
2017-07-19T12:46:40.011Z,32.60
2017-07-19T12:49:06.344Z,31.80
2017-07-19T12:51:32.736Z,31.20
2017-07-19T12:53:59.098Z,30.60
2017-07-19T12:56:25.436Z,31.40
2017-07-19T12:58:51.788Z,32.00
2017-07-19T13:01:18.091Z,32.30
2017-07-19T13:03:44.539Z,32.30
2017-07-19T13:06:10.867Z,32.00
2017-07-19T13:08:37.171Z,31.70
2017-07-19T13:11:03.495Z,31.20
2017-07-19T13:13:29.824Z,31.20
2017-07-19T13:15:56.160Z,31.00
2017-07-19T13:18:22.529Z,31.30
2017-07-19T13:20:48.848Z,31.10
2017-07-19T13:23:15.158Z,31.50
2017-07-19T13:25:41.526Z,32.00
2017-07-19T13:28:07.905Z,31.90
2017-07-19T13:30:34.229Z,32.00
2017-07-19T13:33:00.609Z,32.30
2017-07-19T13:35:26.935Z,32.40
2017-07-19T13:37:53.266Z,31.90
2017-07-19T13:40:19.633Z,31.80
2017-07-19T13:42:46.668Z,32.10
2017-07-19T13:45:13.038Z,32.10
2017-07-19T13:47:39.389Z,32.30
2017-07-19T13:50:05.688Z,32.60
2017-07-19T13:52:32.064Z,32.60
2017-07-19T13:54:58.441Z,31.90
2017-07-19T13:57:24.781Z,32.00
2017-07-19T13:59:51.099Z,31.70
2017-07-19T14:02:17.453Z,31.70
2017-07-19T14:04:43.806Z,31.80
2017-07-19T14:07:10.144Z,32.00
2017-07-19T14:09:36.505Z,31.90
2017-07-19T14:12:03.568Z,32.10
2017-07-19T14:14:29.943Z,32.10
2017-07-19T14:16:56.327Z,31.60
2017-07-19T14:19:23.388Z,31.30
2017-07-19T14:21:49.685Z,31.30
2017-07-19T14:24:16.059Z,31.50
2017-07-19T14:26:42.352Z,31.30
2017-07-19T14:29:09.438Z,31.80
2017-07-19T14:31:35.795Z,31.70
2017-07-19T14:34:02.105Z,31.80
2017-07-19T14:36:28.449Z,31.30
2017-07-19T14:38:54.778Z,31.50
2017-07-19T14:41:21.122Z,31.60
2017-07-19T14:43:48.212Z,31.00
2017-07-19T14:46:14.622Z,30.90
2017-07-19T14:48:40.932Z,30.90
2017-07-19T14:51:07.224Z,31.20
2017-07-19T14:53:33.574Z,31.30
2017-07-19T14:55:59.891Z,31.10
2017-07-19T14:58:26.197Z,31.10
2017-07-19T15:00:52.519Z,31.30
2017-07-19T15:03:18.886Z,31.40
2017-07-19T15:05:45.239Z,31.50
2017-07-19T15:08:11.543Z,31.50
2017-07-19T15:10:37.862Z,31.50
2017-07-19T15:13:04.191Z,31.50
2017-07-19T15:15:30.509Z,31.50
2017-07-19T15:17:56.922Z,31.50
2017-07-19T15:20:23.269Z,31.60
2017-07-19T15:22:49.588Z,31.50
2017-07-19T15:25:16.074Z,31.60
2017-07-19T15:27:42.453Z,31.60
2017-07-19T15:30:09.525Z,31.40
2017-07-19T15:32:35.834Z,31.40
2017-07-19T15:35:02.217Z,31.30
2017-07-19T15:37:28.552Z,31.30
2017-07-19T15:39:54.872Z,31.20
2017-07-19T15:42:21.260Z,31.20
2017-07-19T15:44:47.594Z,31.00
2017-07-19T15:47:13.895Z,31.10
2017-07-19T15:49:40.273Z,31.00
2017-07-19T15:52:06.589Z,30.80
2017-07-19T15:54:33.039Z,30.70
2017-07-19T15:56:59.410Z,30.60
2017-07-19T15:59:25.723Z,30.70
2017-07-19T16:01:52.065Z,30.70
2017-07-19T16:04:19.177Z,30.90
2017-07-19T16:06:45.495Z,30.90
2017-07-19T16:09:11.808Z,30.90
2017-07-19T16:11:38.914Z,30.70
2017-07-19T16:14:05.247Z,30.70
2017-07-19T16:16:31.593Z,30.60
2017-07-19T16:18:57.958Z,30.50
2017-07-19T16:21:24.644Z,30.40
2017-07-19T16:23:50.969Z,30.30
2017-07-19T16:26:17.299Z,30.20
2017-07-19T16:28:43.653Z,30.30
2017-07-19T16:31:09.976Z,30.30
2017-07-19T16:33:36.288Z,30.30
2017-07-19T16:36:02.660Z,30.30
2017-07-19T16:38:28.995Z,30.30
2017-07-19T16:40:55.316Z,30.30
2017-07-19T16:43:22.393Z,30.20
2017-07-19T16:45:48.713Z,30.20
2017-07-19T16:48:15.048Z,30.30
2017-07-19T16:50:41.368Z,30.30
2017-07-19T16:53:07.704Z,30.30
2017-07-19T16:55:34.035Z,30.30
2017-07-19T16:58:00.381Z,30.30
2017-07-19T17:00:26.739Z,30.20
2017-07-19T17:02:53.084Z,30.10
2017-07-19T17:05:19.453Z,30.10
2017-07-19T17:07:45.847Z,30.00
2017-07-19T17:10:12.152Z,30.00
2017-07-19T17:12:38.515Z,30.00
2017-07-19T17:15:04.824Z,29.90
2017-07-19T17:17:31.148Z,29.90
2017-07-19T17:19:57.524Z,29.80
2017-07-19T17:22:24.578Z,29.90
2017-07-19T17:24:50.956Z,29.90
2017-07-19T17:27:17.445Z,29.90
2017-07-19T17:29:43.817Z,29.90
2017-07-19T17:32:10.144Z,29.90
2017-07-19T17:34:36.493Z,29.80
2017-07-19T17:37:02.926Z,29.80
2017-07-19T17:39:29.283Z,29.80
2017-07-19T17:41:56.417Z,29.80
2017-07-19T17:44:22.789Z,29.80
2017-07-19T17:46:49.106Z,29.80
2017-07-19T17:49:15.419Z,29.70
2017-07-19T17:51:41.751Z,29.70
2017-07-19T17:54:08.166Z,29.60
2017-07-19T17:56:35.263Z,29.50
2017-07-19T17:59:01.607Z,29.50
2017-07-19T18:01:27.919Z,29.40
2017-07-19T18:03:54.241Z,29.50
2017-07-19T18:06:20.662Z,29.40
2017-07-19T18:08:47.006Z,29.40
2017-07-19T18:11:13.481Z,29.40
2017-07-19T18:13:39.819Z,29.50
2017-07-19T18:16:06.136Z,29.60
2017-07-19T18:18:32.628Z,29.60
2017-07-19T18:20:59.028Z,29.70
2017-07-19T18:23:25.359Z,29.60
2017-07-19T18:25:52.486Z,29.30
2017-07-19T18:28:18.826Z,29.30
2017-07-19T18:30:45.143Z,27.40
2017-07-19T18:33:11.509Z,26.60
2017-07-19T18:35:38.656Z,25.90
2017-07-19T18:38:05.735Z,25.10
2017-07-19T18:40:32.036Z,25.00
2017-07-19T18:42:59.174Z,24.80
2017-07-19T18:45:25.528Z,24.80
2017-07-19T18:47:52.601Z,24.50
2017-07-19T18:50:18.970Z,24.40
2017-07-19T18:52:45.311Z,23.60
2017-07-19T18:55:11.666Z,23.50
2017-07-19T18:57:38.748Z,23.10
2017-07-19T19:00:05.110Z,23.10
2017-07-19T19:02:31.473Z,22.70
2017-07-19T19:04:57.794Z,21.90
2017-07-19T19:07:24.864Z,20.70
2017-07-19T19:09:51.250Z,20.60
2017-07-19T19:12:17.719Z,20.40
2017-07-19T19:14:44.514Z,19.90
2017-07-19T19:17:10.938Z,20.20
2017-07-19T19:19:37.248Z,20.40
2017-07-19T19:22:03.576Z,20.60
2017-07-19T19:24:29.921Z,20.60
2017-07-19T19:26:56.246Z,20.60
2017-07-19T19:29:22.548Z,20.80
2017-07-19T19:31:48.914Z,21.00
2017-07-19T19:34:15.243Z,21.10
2017-07-19T19:36:41.585Z,21.10
2017-07-19T19:39:07.934Z,21.00
2017-07-19T19:41:34.307Z,20.70
2017-07-19T19:44:00.653Z,20.60
2017-07-19T19:46:26.997Z,20.60
2017-07-19T19:48:53.337Z,20.50
2017-07-19T19:51:19.679Z,20.40
2017-07-19T19:53:45.994Z,20.20
2017-07-19T19:56:12.300Z,20.20
2017-07-19T19:58:38.664Z,20.20
2017-07-19T20:01:05.073Z,20.20
2017-07-19T20:03:32.437Z,20.00
2017-07-19T20:05:58.768Z,20.00
2017-07-19T20:08:25.113Z,20.10
2017-07-19T20:10:51.427Z,20.00
2017-07-19T20:13:17.799Z,19.70
2017-07-19T20:15:44.884Z,19.60
2017-07-19T20:18:11.217Z,19.60
2017-07-19T20:20:37.560Z,19.80
2017-07-19T20:23:03.931Z,19.70
2017-07-19T20:25:30.289Z,19.50
2017-07-19T20:27:56.588Z,19.50
2017-07-19T20:30:22.898Z,19.40
2017-07-19T20:32:49.243Z,19.40
2017-07-19T20:35:15.596Z,19.40
2017-07-19T20:37:41.912Z,19.50
2017-07-19T20:40:08.987Z,19.40
2017-07-19T20:42:35.297Z,19.40
2017-07-19T20:45:01.627Z,19.50
2017-07-19T20:47:28.701Z,19.90
2017-07-19T20:49:55.042Z,19.90
2017-07-19T20:52:21.348Z,20.00
2017-07-19T20:54:47.649Z,20.00
2017-07-19T20:57:13.965Z,19.90
2017-07-19T20:59:40.299Z,19.80
2017-07-19T21:02:06.595Z,19.90
2017-07-19T21:04:32.972Z,19.80
2017-07-19T21:06:59.284Z,19.70
2017-07-19T21:09:25.628Z,19.60
2017-07-19T21:11:51.929Z,19.50
2017-07-19T21:14:18.239Z,19.50
2017-07-19T21:16:44.564Z,19.40
2017-07-19T21:19:10.864Z,19.30
2017-07-19T21:21:37.180Z,19.30
2017-07-19T21:24:03.535Z,19.40
2017-07-19T21:26:29.855Z,19.20
2017-07-19T21:28:56.899Z,18.60
2017-07-19T21:31:23.987Z,18.70
2017-07-19T21:33:50.363Z,18.70
2017-07-19T21:36:16.795Z,18.80
2017-07-19T21:38:43.151Z,18.70
2017-07-19T21:41:09.457Z,18.70
2017-07-19T21:43:35.776Z,18.60
2017-07-19T21:46:02.076Z,18.60
2017-07-19T21:48:28.375Z,18.60
2017-07-19T21:50:54.721Z,18.50
2017-07-19T21:53:21.028Z,18.40
2017-07-19T21:55:47.377Z,18.20
2017-07-19T21:58:13.695Z,18.30
2017-07-19T22:00:40.036Z,18.00
2017-07-19T22:03:06.436Z,17.90
2017-07-19T22:05:32.727Z,18.10
2017-07-19T22:07:59.189Z,18.10
2017-07-19T22:10:27.173Z,18.40
2017-07-19T22:12:53.471Z,18.40
2017-07-19T22:15:19.806Z,18.60
2017-07-19T22:17:46.108Z,18.50
2017-07-19T22:20:12.457Z,18.60
2017-07-19T22:22:38.775Z,18.70
2017-07-19T22:25:05.080Z,18.70
2017-07-19T22:27:31.437Z,18.70
2017-07-19T22:29:57.738Z,18.60
2017-07-19T22:32:24.068Z,18.50
2017-07-19T22:34:50.416Z,18.50
2017-07-19T22:37:16.716Z,18.40
2017-07-19T22:39:43.065Z,18.40
2017-07-19T22:42:09.467Z,18.30
2017-07-19T22:44:36.541Z,18.20
2017-07-19T22:47:02.858Z,18.20
2017-07-19T22:49:29.180Z,18.20
2017-07-19T22:51:55.544Z,18.30
2017-07-19T22:54:21.876Z,18.20
2017-07-19T22:56:48.205Z,18.00
2017-07-19T22:59:14.504Z,17.90
2017-07-19T23:01:40.799Z,18.00
2017-07-19T23:04:07.887Z,17.60
2017-07-19T23:06:34.224Z,17.60
2017-07-19T23:09:00.571Z,17.80
2017-07-19T23:11:26.877Z,17.90
2017-07-19T23:13:53.224Z,17.90
2017-07-19T23:16:19.534Z,17.50
2017-07-19T23:18:45.835Z,17.30
2017-07-19T23:21:12.172Z,17.10
2017-07-19T23:23:39.200Z,16.90
2017-07-19T23:26:05.598Z,16.90
2017-07-19T23:28:31.913Z,16.80
2017-07-19T23:30:58.203Z,16.80
2017-07-19T23:33:24.577Z,16.80
2017-07-19T23:35:50.867Z,16.80
2017-07-19T23:38:17.924Z,16.80
2017-07-19T23:40:44.244Z,16.80
2017-07-19T23:43:10.564Z,16.80
2017-07-19T23:45:36.875Z,16.80
2017-07-19T23:48:03.184Z,16.80
2017-07-19T23:50:29.509Z,16.90
2017-07-19T23:52:55.829Z,17.00
2017-07-19T23:55:22.158Z,17.10
2017-07-19T23:57:48.509Z,17.00
